createdAt,value
2019-05-01T00:00:16.686Z,79
2019-05-01T00:01:02.769Z,79
2019-05-01T00:02:03.002Z,79
2019-05-01T00:03:03.831Z,79
2019-05-01T00:04:03.814Z,79
2019-05-01T00:05:03.763Z,79
2019-05-01T00:06:03.593Z,79
2019-05-01T00:07:03.508Z,79
2019-05-01T00:08:03.303Z,79
2019-05-01T00:09:03.446Z,79
2019-05-01T00:10:03.400Z,79
2019-05-01T00:11:03.254Z,79
2019-05-01T00:12:03.416Z,79
2019-05-01T00:13:03.489Z,79
2019-05-01T00:14:03.464Z,79
2019-05-01T00:15:03.747Z,79
2019-05-01T00:16:03.274Z,79
2019-05-01T00:17:03.410Z,79
2019-05-01T00:18:03.733Z,79
2019-05-01T00:19:02.160Z,79
2019-05-01T00:20:03.802Z,79
2019-05-01T00:21:03.168Z,79
2019-05-01T00:22:03.046Z,79
2019-05-01T00:23:03.095Z,79
2019-05-01T00:24:03.379Z,79
2019-05-01T00:25:03.021Z,79
2019-05-01T00:26:02.975Z,79
2019-05-01T00:27:03.274Z,79
2019-05-01T00:28:02.946Z,79
2019-05-01T00:29:03.114Z,79
2019-05-01T00:30:03.874Z,79
2019-05-01T00:31:03.042Z,79
2019-05-01T00:32:02.977Z,79
2019-05-01T00:33:03.835Z,79
2019-05-01T00:34:03.789Z,79
2019-05-01T00:35:03.997Z,80
2019-05-01T00:36:03.809Z,80
2019-05-01T00:37:03.713Z,80
2019-05-01T00:38:03.536Z,80
2019-05-01T00:39:03.795Z,80
2019-05-01T00:40:03.748Z,80
2019-05-01T00:41:03.498Z,80
2019-05-01T00:42:03.335Z,80
2019-05-01T00:43:03.399Z,80
2019-05-01T00:44:03.408Z,80
2019-05-01T00:45:03.430Z,80
2019-05-01T00:46:04.041Z,80
2019-05-01T00:47:03.094Z,80
2019-05-01T00:48:03.768Z,80
2019-05-01T00:49:03.558Z,80
2019-05-01T00:50:03.412Z,80
2019-05-01T00:51:03.279Z,80
2019-05-01T00:52:03.162Z,80
2019-05-01T00:53:03.094Z,80
2019-05-01T00:54:03.067Z,80
2019-05-01T00:55:03.562Z,80
2019-05-01T00:56:03.265Z,80
2019-05-01T00:57:03.252Z,80
2019-05-01T00:58:03.409Z,80
2019-05-01T00:59:03.168Z,80
2019-05-01T01:00:03.568Z,80
2019-05-01T01:01:03.280Z,80
2019-05-01T01:02:03.280Z,80
2019-05-01T01:03:03.022Z,80
2019-05-01T01:04:02.792Z,80
2019-05-01T01:05:03.017Z,81
2019-05-01T01:06:03.396Z,81
2019-05-01T01:07:02.881Z,81
2019-05-01T01:08:03.056Z,81
2019-05-01T01:09:03.051Z,81
2019-05-01T01:10:03.121Z,81
2019-05-01T01:11:03.818Z,81
2019-05-01T01:12:03.705Z,81
2019-05-01T01:13:02.939Z,81
2019-05-01T01:14:03.525Z,81
2019-05-01T01:15:03.122Z,81
2019-05-01T01:16:04.295Z,81
2019-05-01T01:17:03.779Z,81
2019-05-01T01:18:03.565Z,81
2019-05-01T01:19:03.087Z,81
2019-05-01T01:20:03.848Z,81
2019-05-01T01:21:03.673Z,81
2019-05-01T01:22:03.806Z,81
2019-05-01T01:23:03.547Z,81
2019-05-01T01:24:03.789Z,81
2019-05-01T01:25:03.422Z,81
2019-05-01T01:26:03.583Z,81
2019-05-01T01:27:03.341Z,81
2019-05-01T01:28:03.359Z,81
2019-05-01T01:29:03.277Z,81
2019-05-01T01:30:03.674Z,81
2019-05-01T01:31:03.352Z,81
2019-05-01T01:32:03.514Z,81
2019-05-01T01:33:03.518Z,81
2019-05-01T01:34:03.362Z,81
2019-05-01T01:35:03.175Z,81
2019-05-01T01:36:03.226Z,81
2019-05-01T01:37:03.138Z,81
2019-05-01T01:38:02.933Z,81
2019-05-01T01:39:02.895Z,81
2019-05-01T01:40:02.931Z,81
2019-05-01T01:41:02.970Z,81
2019-05-01T01:42:02.755Z,81
2019-05-01T01:43:02.697Z,81
2019-05-01T01:44:03.777Z,81
2019-05-01T01:45:03.687Z,81
2019-05-01T01:46:03.775Z,81
2019-05-01T01:47:03.601Z,81
2019-05-01T01:48:03.812Z,81
2019-05-01T01:49:03.327Z,81
2019-05-01T01:50:03.903Z,81
2019-05-01T01:51:03.324Z,81
2019-05-01T01:52:03.405Z,81
2019-05-01T01:53:03.183Z,81
2019-05-01T01:54:03.129Z,81
2019-05-01T01:55:03.504Z,80
2019-05-01T01:56:03.103Z,80
2019-05-01T01:57:03.409Z,80
2019-05-01T01:58:03.136Z,81
2019-05-01T01:59:03.058Z,81
2019-05-01T02:00:03.382Z,81
2019-05-01T02:01:10.094Z,81
2019-05-01T02:02:03.066Z,81
2019-05-01T02:03:02.763Z,80
2019-05-01T02:04:02.784Z,81
2019-05-01T02:05:02.988Z,81
2019-05-01T02:06:03.805Z,81
2019-05-01T02:07:03.653Z,81
2019-05-01T02:08:02.859Z,81
2019-05-01T02:09:03.658Z,81
2019-05-01T02:10:03.967Z,81
2019-05-01T02:11:03.444Z,81
2019-05-01T02:12:03.862Z,81
2019-05-01T02:13:03.460Z,81
2019-05-01T02:14:03.538Z,81
2019-05-01T02:15:03.554Z,81
2019-05-01T02:16:03.188Z,81
2019-05-01T02:17:03.602Z,81
2019-05-01T02:18:03.492Z,81
2019-05-01T02:19:03.544Z,81
2019-05-01T02:20:03.271Z,82
2019-05-01T02:21:03.218Z,82
2019-05-01T02:22:03.291Z,82
2019-05-01T02:23:03.423Z,82
2019-05-01T02:24:03.247Z,82
2019-05-01T02:25:03.467Z,82
2019-05-01T02:26:03.169Z,82
2019-05-01T02:27:01.737Z,82
2019-05-01T02:28:02.984Z,82
2019-05-01T02:29:02.940Z,82
2019-05-01T02:30:04.057Z,82
2019-05-01T02:31:02.983Z,82
2019-05-01T02:32:02.772Z,82
2019-05-01T02:33:02.954Z,82
2019-05-01T02:34:03.059Z,82
2019-05-01T02:35:02.957Z,82
2019-05-01T02:36:03.683Z,82
2019-05-01T02:37:03.732Z,82
2019-05-01T02:38:03.617Z,82
2019-05-01T02:39:03.780Z,82
2019-05-01T02:40:03.484Z,82
2019-05-01T02:41:03.704Z,82
2019-05-01T02:42:03.533Z,82
2019-05-01T02:43:03.725Z,82
2019-05-01T02:44:03.592Z,82
2019-05-01T02:45:03.763Z,82
2019-05-01T02:46:03.799Z,82
2019-05-01T02:47:03.426Z,82
2019-05-01T02:48:03.444Z,82
2019-05-01T02:49:03.456Z,82
2019-05-01T02:50:03.545Z,82
2019-05-01T02:51:03.285Z,82
2019-05-01T02:52:03.044Z,82
2019-05-01T02:53:03.395Z,82
2019-05-01T02:54:03.327Z,82
2019-05-01T02:55:03.132Z,82
2019-05-01T02:56:03.231Z,82
2019-05-01T02:57:03.179Z,82
2019-05-01T02:58:03.642Z,82
2019-05-01T02:59:03.211Z,82
2019-05-01T03:00:03.589Z,82
2019-05-01T03:01:03.285Z,82
2019-05-01T03:02:03.501Z,82
2019-05-01T03:03:03.105Z,82
2019-05-01T03:04:03.032Z,82
2019-05-01T03:05:03.073Z,82
2019-05-01T03:06:03.057Z,82
2019-05-01T03:07:03.270Z,82
2019-05-01T03:08:03.660Z,82
2019-05-01T03:09:03.272Z,82
2019-05-01T03:10:03.178Z,82
2019-05-01T03:11:02.778Z,82
2019-05-01T03:12:03.127Z,82
2019-05-01T03:13:03.789Z,82
2019-05-01T03:14:02.997Z,82
2019-05-01T03:15:03.141Z,82
2019-05-01T03:16:02.923Z,82
2019-05-01T03:17:02.671Z,82
2019-05-01T03:18:03.175Z,83
2019-05-01T03:19:03.737Z,83
2019-05-01T03:20:03.844Z,83
2019-05-01T03:21:03.708Z,83
2019-05-01T03:22:03.638Z,83
2019-05-01T03:23:03.658Z,83
2019-05-01T03:24:03.122Z,83
2019-05-01T03:25:03.769Z,83
2019-05-01T03:26:03.463Z,83
2019-05-01T03:27:03.520Z,83
2019-05-01T03:28:03.422Z,83
2019-05-01T03:29:03.488Z,83
2019-05-01T03:30:03.464Z,83
2019-05-01T03:31:03.450Z,83
2019-05-01T03:32:20.234Z,83
2019-05-01T03:33:03.597Z,83
2019-05-01T03:34:03.052Z,83
2019-05-01T03:35:03.070Z,83
2019-05-01T03:36:03.203Z,83
2019-05-01T03:37:02.899Z,83
2019-05-01T03:38:03.055Z,83
2019-05-01T03:39:03.591Z,83
2019-05-01T03:40:02.885Z,83
2019-05-01T03:41:04.444Z,83
2019-05-01T03:42:02.960Z,83
2019-05-01T03:43:03.678Z,83
2019-05-01T03:44:03.685Z,83
2019-05-01T03:45:03.805Z,83
2019-05-01T03:46:03.638Z,83
2019-05-01T03:47:03.587Z,83
2019-05-01T03:48:03.579Z,83
2019-05-01T03:49:03.595Z,83
2019-05-01T03:50:03.375Z,83
2019-05-01T03:51:03.492Z,83
2019-05-01T03:52:03.500Z,83
2019-05-01T03:53:03.558Z,83
2019-05-01T03:54:03.275Z,83
2019-05-01T03:55:03.334Z,83
2019-05-01T03:56:03.145Z,83
2019-05-01T03:57:03.120Z,83
2019-05-01T03:58:03.386Z,84
2019-05-01T03:59:03.105Z,84
2019-05-01T04:00:03.274Z,84
2019-05-01T04:01:02.882Z,84
2019-05-01T04:02:02.915Z,84
2019-05-01T04:03:03.837Z,84
2019-05-01T04:04:03.020Z,84
2019-05-01T04:05:03.259Z,84
2019-05-01T04:06:03.156Z,84
2019-05-01T04:07:03.004Z,84
2019-05-01T04:08:03.873Z,84
2019-05-01T04:09:03.140Z,84
2019-05-01T04:10:03.835Z,84
2019-05-01T04:11:03.428Z,84
2019-05-01T04:12:03.531Z,84
2019-05-01T04:13:03.800Z,84
2019-05-01T04:14:03.679Z,84
2019-05-01T04:15:03.405Z,84
2019-05-01T04:16:03.711Z,84
2019-05-01T04:17:03.584Z,84
2019-05-01T04:18:03.647Z,85
2019-05-01T04:19:03.453Z,85
2019-05-01T04:20:03.496Z,85
2019-05-01T04:21:03.315Z,85
2019-05-01T04:22:03.412Z,85
2019-05-01T04:23:03.353Z,85
2019-05-01T04:24:03.368Z,85
2019-05-01T04:25:03.405Z,85
2019-05-01T04:26:03.155Z,85
2019-05-01T04:27:02.831Z,85
2019-05-01T04:28:03.322Z,85
2019-05-01T04:29:03.243Z,85
2019-05-01T04:30:02.997Z,85
2019-05-01T04:31:03.812Z,85
2019-05-01T04:32:02.830Z,85
2019-05-01T04:33:03.032Z,85
2019-05-01T04:34:04.167Z,85
2019-05-01T04:35:03.837Z,85
2019-05-01T04:36:03.966Z,85
2019-05-01T04:37:03.715Z,85
2019-05-01T04:38:03.535Z,85
2019-05-01T04:39:03.958Z,85
2019-05-01T04:40:03.621Z,85
2019-05-01T04:41:03.777Z,85
2019-05-01T04:42:03.642Z,85
2019-05-01T04:43:03.815Z,85
2019-05-01T04:44:03.379Z,85
2019-05-01T04:45:03.676Z,85
2019-05-01T04:46:03.302Z,85
2019-05-01T04:47:03.455Z,85
2019-05-01T04:48:03.378Z,85
2019-05-01T04:49:03.260Z,85
2019-05-01T04:50:03.161Z,85
2019-05-01T04:51:03.213Z,85
2019-05-01T04:52:03.207Z,85
2019-05-01T04:53:03.079Z,85
2019-05-01T04:54:03.300Z,85
2019-05-01T04:55:03.179Z,85
2019-05-01T04:56:03.529Z,85
2019-05-01T04:57:03.340Z,85
2019-05-01T04:58:02.056Z,85
2019-05-01T04:59:03.410Z,85
2019-05-01T05:00:03.366Z,85
2019-05-01T05:01:03.140Z,85
2019-05-01T05:02:03.064Z,85
2019-05-01T05:03:05.710Z,85
2019-05-01T05:04:03.049Z,85
2019-05-01T05:05:03.081Z,86
2019-05-01T05:06:03.798Z,86
2019-05-01T05:07:03.273Z,86
2019-05-01T05:08:03.774Z,86
2019-05-01T05:09:02.891Z,86
2019-05-01T05:10:03.086Z,86
2019-05-01T05:11:02.997Z,86
2019-05-01T05:12:03.991Z,86
2019-05-01T05:13:03.611Z,86
2019-05-01T05:14:03.813Z,85
2019-05-01T05:15:03.973Z,85
2019-05-01T05:16:03.605Z,85
2019-05-01T05:17:03.574Z,85
2019-05-01T05:18:03.478Z,85
2019-05-01T05:19:03.455Z,85
2019-05-01T05:20:03.490Z,85
2019-05-01T05:21:03.124Z,85
2019-05-01T05:22:03.462Z,85
2019-05-01T05:23:03.392Z,85
2019-05-01T05:24:03.306Z,85
2019-05-01T05:25:03.565Z,85
2019-05-01T05:26:03.009Z,85
2019-05-01T05:27:03.330Z,85
2019-05-01T05:28:02.914Z,84
2019-05-01T05:29:02.968Z,84
2019-05-01T05:30:03.089Z,84
2019-05-01T05:31:03.449Z,84
2019-05-01T05:32:03.069Z,84
2019-05-01T05:33:03.292Z,84
2019-05-01T05:34:03.195Z,84
2019-05-01T05:35:03.351Z,84
2019-05-01T05:36:02.948Z,83
2019-05-01T05:37:03.837Z,83
2019-05-01T05:38:03.022Z,83
2019-05-01T05:39:03.747Z,83
2019-05-01T05:40:03.864Z,83
2019-05-01T05:41:03.850Z,83
2019-05-01T05:42:03.270Z,83
2019-05-01T05:43:03.637Z,83
2019-05-01T05:44:02.961Z,83
2019-05-01T05:45:03.916Z,83
2019-05-01T05:46:03.701Z,83
2019-05-01T05:47:03.772Z,83
2019-05-01T05:48:03.744Z,83
2019-05-01T05:49:03.665Z,83
2019-05-01T05:50:03.785Z,83
2019-05-01T05:51:03.534Z,83
2019-05-01T05:52:03.521Z,83
2019-05-01T05:53:03.432Z,83
2019-05-01T05:54:03.445Z,83
2019-05-01T05:55:03.786Z,83
2019-05-01T05:56:03.109Z,83
2019-05-01T05:57:03.192Z,83
2019-05-01T05:58:03.012Z,83
2019-05-01T05:59:03.065Z,83
2019-05-01T06:00:03.143Z,83
2019-05-01T06:01:03.129Z,82
2019-05-01T06:02:03.329Z,82
2019-05-01T06:03:03.940Z,82
2019-05-01T06:04:02.984Z,82
2019-05-01T06:05:02.893Z,82
2019-05-01T06:06:03.265Z,82
2019-05-01T06:07:03.669Z,82
2019-05-01T06:08:03.692Z,82
2019-05-01T06:09:03.819Z,82
2019-05-01T06:10:03.722Z,82
2019-05-01T06:11:03.600Z,82
2019-05-01T06:12:10.252Z,81
2019-05-01T06:13:03.546Z,81
2019-05-01T06:14:03.696Z,81
2019-05-01T06:15:07.755Z,81
2019-05-01T06:16:03.653Z,81
2019-05-01T06:17:03.488Z,81
2019-05-01T06:18:06.063Z,81
2019-05-01T06:19:03.236Z,81
2019-05-01T06:20:03.063Z,81
2019-05-01T06:21:04.151Z,81
2019-05-01T06:22:11.755Z,81
2019-05-01T06:23:03.363Z,81
2019-05-01T06:24:07.126Z,81
2019-05-01T06:25:03.354Z,81
2019-05-01T06:26:03.118Z,81
2019-05-01T06:27:03.183Z,81
2019-05-01T06:28:02.937Z,81
2019-05-01T06:29:03.667Z,81
2019-05-01T06:30:12.672Z,80
2019-05-01T06:31:03.712Z,80
2019-05-01T06:32:03.728Z,80
2019-05-01T06:33:11.324Z,80
2019-05-01T06:34:03.682Z,79
2019-05-01T06:35:04.827Z,79
2019-05-01T06:36:03.657Z,79
2019-05-01T06:37:03.539Z,79
2019-05-01T06:38:03.644Z,79
2019-05-01T06:39:13.392Z,79
2019-05-01T06:40:03.562Z,79
2019-05-01T06:41:03.491Z,80
2019-05-01T06:42:02.752Z,80
2019-05-01T06:43:03.208Z,80
2019-05-01T06:44:07.723Z,80
2019-05-01T06:45:03.408Z,80
2019-05-01T06:46:03.055Z,80
2019-05-01T06:47:05.312Z,79
2019-05-01T06:48:02.871Z,79
2019-05-01T06:49:03.131Z,79
2019-05-01T06:50:07.737Z,79
2019-05-01T06:51:02.816Z,79
2019-05-01T06:52:02.998Z,78
2019-05-01T06:53:06.787Z,78
2019-05-01T06:54:03.011Z,78
2019-05-01T06:55:03.669Z,78
2019-05-01T06:56:03.605Z,78
2019-05-01T06:57:03.707Z,78
2019-05-01T06:58:03.500Z,78
2019-05-01T06:59:03.624Z,78
2019-05-01T07:00:09.585Z,77
2019-05-01T07:01:03.476Z,77
2019-05-01T07:02:03.840Z,75
2019-05-01T07:03:11.860Z,75
2019-05-01T07:04:04.291Z,74
2019-05-01T07:05:03.763Z,73
2019-05-01T07:06:14.759Z,73
2019-05-01T07:07:25.403Z,72
2019-05-01T07:09:26.787Z,71
2019-05-01T07:11:03.277Z,70
2019-05-01T07:12:03.270Z,70
2019-05-01T07:13:06.752Z,70
2019-05-01T07:14:03.106Z,70
2019-05-01T07:15:03.579Z,70
2019-05-01T07:16:03.507Z,70
2019-05-01T07:17:03.379Z,70
2019-05-01T07:18:03.077Z,71
2019-05-01T07:19:07.110Z,71
2019-05-01T07:20:03.142Z,71
2019-05-01T07:21:03.374Z,71
2019-05-01T07:22:07.571Z,72
2019-05-01T07:23:02.865Z,72
2019-05-01T07:24:02.962Z,72
2019-05-01T07:25:05.397Z,72
2019-05-01T07:26:03.274Z,72
2019-05-01T07:27:03.793Z,72
2019-05-01T07:28:02.880Z,72
2019-05-01T07:29:11.232Z,72
2019-05-01T07:30:02.799Z,72
2019-05-01T07:31:05.706Z,72
2019-05-01T07:32:07.675Z,72
2019-05-01T07:33:03.661Z,72
2019-05-01T07:34:17.200Z,72
2019-05-01T07:35:04.157Z,72
2019-05-01T07:36:16.620Z,72
2019-05-01T07:37:03.517Z,72
2019-05-01T07:38:03.639Z,72
2019-05-01T07:39:03.656Z,72
2019-05-01T07:40:03.342Z,72
2019-05-01T07:41:05.359Z,72
2019-05-01T07:42:03.586Z,72
2019-05-01T07:43:03.295Z,72
2019-05-01T07:44:03.000Z,72
2019-05-01T07:45:09.851Z,72
2019-05-01T07:46:03.316Z,72
2019-05-01T07:47:03.420Z,72
2019-05-01T07:48:06.962Z,71
2019-05-01T07:49:03.306Z,71
2019-05-01T07:50:03.612Z,71
2019-05-01T07:51:09.046Z,71
2019-05-01T07:52:03.549Z,71
2019-05-01T07:53:03.269Z,71
2019-05-01T07:54:09.118Z,71
2019-05-01T07:55:03.092Z,71
2019-05-01T07:56:03.377Z,71
2019-05-01T07:57:05.044Z,70
2019-05-01T07:58:03.080Z,70
2019-05-01T07:59:02.808Z,70
2019-05-01T08:00:08.716Z,70
2019-05-01T08:01:03.874Z,70
2019-05-01T08:02:03.739Z,70
2019-05-01T08:03:08.528Z,70
2019-05-01T08:04:02.495Z,69
2019-05-01T08:05:11.863Z,69
2019-05-01T08:06:03.235Z,69
2019-05-01T08:07:03.788Z,69
2019-05-01T08:08:09.733Z,69
2019-05-01T08:09:03.772Z,69
2019-05-01T08:10:03.766Z,69
2019-05-01T08:11:10.528Z,69
2019-05-01T08:12:03.641Z,69
2019-05-01T08:13:03.429Z,69
2019-05-01T08:14:18.130Z,69
2019-05-01T08:15:03.712Z,69
2019-05-01T08:16:08.956Z,69
2019-05-01T08:17:03.424Z,68
2019-05-01T08:18:03.462Z,68
2019-05-01T08:19:06.050Z,68
2019-05-01T08:20:03.415Z,68
2019-05-01T08:21:03.307Z,68
2019-05-01T08:22:03.302Z,68
2019-05-01T08:23:03.467Z,68
2019-05-01T08:24:03.270Z,67
2019-05-01T08:25:02.886Z,67
2019-05-01T08:26:10.373Z,67
2019-05-01T08:27:03.223Z,67
2019-05-01T08:28:03.746Z,67
2019-05-01T08:29:08.347Z,67
2019-05-01T08:30:03.045Z,66
2019-05-01T08:31:03.180Z,66
2019-05-01T08:32:04.825Z,66
2019-05-01T08:33:03.780Z,66
2019-05-01T08:34:03.689Z,66
2019-05-01T08:35:03.715Z,65
2019-05-01T08:36:13.574Z,65
2019-05-01T08:37:06.786Z,65
2019-05-01T08:38:03.547Z,65
2019-05-01T08:39:13.661Z,65
2019-05-01T08:40:03.534Z,65
2019-05-01T08:41:03.556Z,65
2019-05-01T08:42:08.310Z,65
2019-05-01T08:43:03.480Z,65
2019-05-01T08:44:03.665Z,64
2019-05-01T08:45:07.040Z,64
2019-05-01T08:46:03.243Z,64
2019-05-01T08:47:03.043Z,64
2019-05-01T08:48:03.212Z,64
2019-05-01T08:49:12.705Z,64
2019-05-01T08:50:03.489Z,63
2019-05-01T08:51:03.082Z,63
2019-05-01T08:52:14.095Z,63
2019-05-01T08:53:02.660Z,63
2019-05-01T08:54:03.451Z,63
2019-05-01T08:55:10.955Z,63
2019-05-01T08:56:02.983Z,63
2019-05-01T08:57:03.120Z,62
2019-05-01T08:58:02.942Z,62
2019-05-01T08:59:03.133Z,63
2019-05-01T09:00:03.985Z,62
2019-05-01T09:01:02.894Z,62
2019-05-01T09:02:10.093Z,62
2019-05-01T09:03:10.538Z,61
2019-05-01T09:04:13.655Z,61
2019-05-01T09:05:33.745Z,61
2019-05-01T09:07:03.661Z,60
2019-05-01T09:08:03.398Z,60
2019-05-01T09:09:10.207Z,60
2019-05-01T09:10:03.306Z,60
2019-05-01T09:11:03.358Z,60
2019-05-01T09:12:13.654Z,60
2019-05-01T09:13:03.310Z,60
2019-05-01T09:14:03.622Z,60
2019-05-01T09:15:14.790Z,60
2019-05-01T09:16:03.522Z,60
2019-05-01T09:17:03.191Z,60
2019-05-01T09:18:03.357Z,59
2019-05-01T09:19:03.397Z,59
2019-05-01T09:20:03.529Z,59
2019-05-01T09:21:03.474Z,59
2019-05-01T09:22:03.322Z,58
2019-05-01T09:23:03.432Z,59
2019-05-01T09:24:02.910Z,59
2019-05-01T09:25:03.809Z,58
2019-05-01T09:26:16.420Z,58
2019-05-01T09:27:03.016Z,58
2019-05-01T09:28:06.158Z,58
2019-05-01T09:29:03.053Z,57
2019-05-01T09:30:04.734Z,57
2019-05-01T09:31:03.682Z,57
2019-05-01T09:32:12.018Z,57
2019-05-01T09:33:03.105Z,56
2019-05-01T09:34:03.632Z,56
2019-05-01T09:35:19.656Z,57
2019-05-01T09:36:03.448Z,56
2019-05-01T09:37:03.262Z,56
2019-05-01T09:38:03.642Z,55
2019-05-01T09:39:03.875Z,55
2019-05-01T09:40:10.459Z,55
2019-05-01T09:41:03.522Z,55
2019-05-01T09:42:06.890Z,54
2019-05-01T09:43:03.639Z,55
2019-05-01T09:44:12.194Z,55
2019-05-01T09:45:03.439Z,54
2019-05-01T09:46:03.548Z,55
2019-05-01T09:47:03.396Z,55
2019-05-01T09:48:02.256Z,54
2019-05-01T09:49:03.533Z,54
2019-05-01T09:50:03.542Z,54
2019-05-01T09:51:06.818Z,54
2019-05-01T09:52:03.074Z,54
2019-05-01T09:53:03.181Z,54
2019-05-01T09:54:11.072Z,54
2019-05-01T09:55:03.057Z,54
2019-05-01T09:56:09.275Z,55
2019-05-01T09:57:03.203Z,55
2019-05-01T09:58:03.153Z,55
2019-05-01T09:59:02.648Z,55
2019-05-01T10:00:02.720Z,54
2019-05-01T10:01:03.235Z,54
2019-05-01T10:02:09.264Z,54
2019-05-01T10:03:03.131Z,53
2019-05-01T10:04:05.855Z,53
2019-05-01T10:05:08.111Z,53
2019-05-01T10:06:03.808Z,53
2019-05-01T10:07:03.408Z,53
2019-05-01T10:08:05.731Z,53
2019-05-01T10:09:03.689Z,53
2019-05-01T10:10:03.553Z,54
2019-05-01T10:11:07.107Z,54
2019-05-01T10:12:03.439Z,53
2019-05-01T10:13:03.281Z,53
2019-05-01T10:14:04.376Z,53
2019-05-01T10:15:03.829Z,52
2019-05-01T10:16:03.239Z,52
2019-05-01T10:17:03.418Z,52
2019-05-01T10:18:03.331Z,52
2019-05-01T10:19:03.297Z,52
2019-05-01T10:20:02.912Z,52
2019-05-01T10:21:03.028Z,52
2019-05-01T10:22:03.949Z,52
2019-05-01T10:23:02.824Z,52
2019-05-01T10:24:02.895Z,53
2019-05-01T10:25:02.843Z,53
2019-05-01T10:26:03.099Z,53
2019-05-01T10:27:02.851Z,53
2019-05-01T10:28:17.735Z,53
2019-05-01T10:29:03.409Z,53
2019-05-01T10:30:03.605Z,53
2019-05-01T10:31:13.268Z,53
2019-05-01T10:32:03.298Z,53
2019-05-01T10:33:03.432Z,53
2019-05-01T10:34:09.274Z,53
2019-05-01T10:35:03.357Z,53
2019-05-01T10:36:03.429Z,53
2019-05-01T10:37:03.695Z,53
2019-05-01T10:38:10.860Z,53
2019-05-01T10:39:03.400Z,53
2019-05-01T10:40:03.609Z,53
2019-05-01T10:41:10.702Z,53
2019-05-01T10:42:03.174Z,54
2019-05-01T10:43:03.013Z,53
2019-05-01T10:44:03.218Z,53
2019-05-01T10:45:03.432Z,53
2019-05-01T10:46:02.637Z,53
2019-05-01T10:47:02.921Z,53
2019-05-01T10:48:02.979Z,54
2019-05-01T10:49:02.911Z,54
2019-05-01T10:50:04.115Z,54
2019-05-01T10:51:03.618Z,54
2019-05-01T10:52:14.833Z,54
2019-05-01T10:53:03.545Z,54
2019-05-01T10:54:03.643Z,54
2019-05-01T10:55:03.841Z,54
2019-05-01T10:56:03.619Z,54
2019-05-01T10:57:04.780Z,53
2019-05-01T10:58:04.049Z,53
2019-05-01T10:59:03.434Z,53
2019-05-01T11:00:03.805Z,53
2019-05-01T11:01:03.599Z,53
2019-05-01T11:02:03.589Z,53
2019-05-01T11:03:03.277Z,53
2019-05-01T11:04:03.415Z,53
2019-05-01T11:05:03.480Z,53
2019-05-01T11:06:02.941Z,53
2019-05-01T11:07:03.468Z,54
2019-05-01T11:08:03.302Z,53
2019-05-01T11:09:03.390Z,53
2019-05-01T11:10:02.963Z,53
2019-05-01T11:11:03.089Z,53
2019-05-01T11:12:03.449Z,53
2019-05-01T11:13:03.226Z,53
2019-05-01T11:14:03.905Z,53
2019-05-01T11:15:04.010Z,53
2019-05-01T11:16:03.059Z,52
2019-05-01T11:17:03.481Z,52
2019-05-01T11:18:03.147Z,52
2019-05-01T11:19:03.826Z,52
2019-05-01T11:20:02.999Z,52
2019-05-01T11:21:03.694Z,52
2019-05-01T11:22:03.674Z,52
2019-05-01T11:23:03.583Z,52
2019-05-01T11:24:03.610Z,52
2019-05-01T11:25:03.687Z,52
2019-05-01T11:26:03.326Z,52
2019-05-01T11:27:03.389Z,52
2019-05-01T11:28:03.291Z,52
2019-05-01T11:29:03.404Z,52
2019-05-01T11:30:03.284Z,51
2019-05-01T11:31:02.995Z,51
2019-05-01T11:32:03.211Z,51
2019-05-01T11:33:03.561Z,52
2019-05-01T11:34:03.049Z,52
2019-05-01T11:35:03.190Z,52
2019-05-01T11:36:10.136Z,52
2019-05-01T11:37:03.071Z,52
2019-05-01T11:38:04.322Z,52
2019-05-01T11:39:03.823Z,52
2019-05-01T11:40:03.227Z,52
2019-05-01T11:41:03.665Z,52
2019-05-01T11:42:03.054Z,51
2019-05-01T11:43:03.669Z,52
2019-05-01T11:44:03.114Z,52
2019-05-01T11:45:03.729Z,52
2019-05-01T11:46:03.871Z,52
2019-05-01T11:47:03.810Z,52
2019-05-01T11:48:03.460Z,51
2019-05-01T11:49:03.902Z,51
2019-05-01T11:50:03.735Z,51
2019-05-01T11:51:03.722Z,51
2019-05-01T11:52:03.372Z,51
2019-05-01T11:53:03.751Z,51
2019-05-01T11:54:03.141Z,51
2019-05-01T11:55:03.624Z,51
2019-05-01T11:56:03.516Z,50
2019-05-01T11:57:03.427Z,50
2019-05-01T11:58:03.518Z,50
2019-05-01T11:59:03.254Z,51
2019-05-01T12:00:03.285Z,51
2019-05-01T12:01:03.310Z,51
2019-05-01T12:02:03.644Z,51
2019-05-01T12:03:03.075Z,51
2019-05-01T12:04:03.014Z,51
2019-05-01T12:05:03.092Z,51
2019-05-01T12:06:03.033Z,51
2019-05-01T12:07:02.945Z,51
2019-05-01T12:08:03.236Z,51
2019-05-01T12:09:02.961Z,51
2019-05-01T12:10:03.312Z,51
2019-05-01T12:11:03.185Z,51
2019-05-01T12:12:03.213Z,51
2019-05-01T12:13:03.390Z,51
2019-05-01T12:14:03.210Z,51
2019-05-01T12:15:03.484Z,51
2019-05-01T12:16:03.262Z,50
2019-05-01T12:17:03.552Z,50
2019-05-01T12:18:03.088Z,50
2019-05-01T12:19:02.893Z,50
2019-05-01T12:20:03.069Z,50
2019-05-01T12:21:02.971Z,50
2019-05-01T12:22:02.684Z,49
2019-05-01T12:23:03.383Z,50
2019-05-01T12:24:03.062Z,50
2019-05-01T12:25:03.262Z,50
2019-05-01T12:26:03.145Z,50
2019-05-01T12:27:02.768Z,50
2019-05-01T12:28:03.109Z,50
2019-05-01T12:29:03.895Z,50
2019-05-01T12:30:02.995Z,50
2019-05-01T12:31:03.845Z,50
2019-05-01T12:32:03.828Z,50
2019-05-01T12:33:03.377Z,50
2019-05-01T12:34:03.709Z,51
2019-05-01T12:35:03.777Z,51
2019-05-01T12:36:03.558Z,51
2019-05-01T12:37:03.529Z,51
2019-05-01T12:38:03.648Z,51
2019-05-01T12:39:03.735Z,51
2019-05-01T12:40:03.407Z,51
2019-05-01T12:41:03.509Z,51
2019-05-01T12:42:03.234Z,51
2019-05-01T12:43:03.282Z,51
2019-05-01T12:44:03.224Z,51
2019-05-01T12:45:03.231Z,51
2019-05-01T12:46:03.268Z,51
2019-05-01T12:47:03.239Z,51
2019-05-01T12:48:03.466Z,51
2019-05-01T12:49:03.381Z,51
2019-05-01T12:50:03.320Z,51
2019-05-01T12:51:03.001Z,51
2019-05-01T12:52:11.075Z,51
2019-05-01T12:53:03.081Z,51
2019-05-01T12:54:03.898Z,51
2019-05-01T12:55:03.108Z,51
2019-05-01T12:56:03.389Z,51
2019-05-01T12:57:03.724Z,51
2019-05-01T12:58:02.912Z,51
2019-05-01T12:59:03.868Z,51
2019-05-01T13:00:09.545Z,51
2019-05-01T13:01:03.612Z,51
2019-05-01T13:02:03.898Z,51
2019-05-01T13:03:03.553Z,52
2019-05-01T13:04:03.787Z,52
2019-05-01T13:05:03.832Z,52
2019-05-01T13:06:03.066Z,51
2019-05-01T13:07:03.403Z,51
2019-05-01T13:08:02.909Z,51
2019-05-01T13:09:03.556Z,52
2019-05-01T13:10:03.392Z,51
2019-05-01T13:11:03.126Z,52
2019-05-01T13:12:03.301Z,51
2019-05-01T13:13:03.407Z,51
2019-05-01T13:14:03.205Z,51
2019-05-01T13:15:03.523Z,51
2019-05-01T13:16:03.075Z,51
2019-05-01T13:17:03.553Z,51
2019-05-01T13:18:03.127Z,51
2019-05-01T13:19:03.070Z,51
2019-05-01T13:20:03.846Z,51
2019-05-01T13:21:02.903Z,51
2019-05-01T13:22:05.574Z,51
2019-05-01T13:23:03.789Z,51
2019-05-01T13:24:02.977Z,51
2019-05-01T13:25:03.863Z,51
2019-05-01T13:26:03.025Z,51
2019-05-01T13:27:03.804Z,51
2019-05-01T13:28:03.358Z,51
2019-05-01T13:29:03.598Z,51
2019-05-01T13:30:03.623Z,51
2019-05-01T13:31:03.254Z,51
2019-05-01T13:32:03.685Z,51
2019-05-01T13:33:03.401Z,51
2019-05-01T13:34:03.130Z,51
2019-05-01T13:35:03.287Z,51
2019-05-01T13:36:03.111Z,51
2019-05-01T13:37:03.707Z,51
2019-05-01T13:38:03.393Z,51
2019-05-01T13:39:03.377Z,51
2019-05-01T13:40:03.533Z,51
2019-05-01T13:41:03.486Z,51
2019-05-01T13:42:03.153Z,51
2019-05-01T13:43:03.103Z,51
2019-05-01T13:44:03.209Z,51
2019-05-01T13:45:03.826Z,51
2019-05-01T13:46:02.961Z,51
2019-05-01T13:47:03.776Z,52
2019-05-01T13:48:03.744Z,52
2019-05-01T13:49:03.802Z,52
2019-05-01T13:50:03.234Z,52
2019-05-01T13:51:03.831Z,52
2019-05-01T13:52:03.801Z,52
2019-05-01T13:53:03.660Z,52
2019-05-01T13:54:06.539Z,51
2019-05-01T13:55:03.676Z,51
2019-05-01T13:56:03.698Z,52
2019-05-01T13:57:03.752Z,52
2019-05-01T13:58:03.409Z,52
2019-05-01T13:59:03.580Z,52
2019-05-01T14:00:03.570Z,52
2019-05-01T14:01:03.379Z,52
2019-05-01T14:02:03.546Z,52
2019-05-01T14:03:03.199Z,52
2019-05-01T14:04:03.421Z,52
2019-05-01T14:05:03.484Z,52
2019-05-01T14:06:02.996Z,52
2019-05-01T14:07:17.299Z,52
2019-05-01T14:08:03.246Z,52
2019-05-01T14:09:03.111Z,52
2019-05-01T14:10:03.119Z,52
2019-05-01T14:11:03.599Z,51
2019-05-01T14:12:03.331Z,51
2019-05-01T14:13:03.042Z,51
2019-05-01T14:14:02.840Z,51
2019-05-01T14:15:03.409Z,51
2019-05-01T14:16:02.797Z,51
2019-05-01T14:17:03.302Z,51
2019-05-01T14:18:03.275Z,51